Martin Challenger — WDB2346 — position and weather

sailwx.info

Track history (hours):
 
Tides and Currents Weather Stations Pressure Air Temp Water Temp Dewpoint Dewpoint Depression Visibility Wind Speed Wind Dir Waves Ship Positions

Martin Challenger

Owner: MARTIN OPERATING PARTNERSHIP LP, VIDOR, TX. More information available from US FCC via Universal Licensing System and Coast Guard Vessel Documentation Center.

Last reported at 2014-Nov-28 15:27 UTC. Time now 2014-Nov-28 15:54 UTC.
Position N 29°22' W 094°54'.

Length 20 m; draft 2.9 m.

MMSI: 366874920.

Date/timePositionNaut miles runAvg speedWind from/ knotsBaromVisibWave heightAir tempDewpointWater temp
2014-Nov-28 15:27N 29°22' W 094°54'0 0.0
2014-Nov-28 14:27N 29°22' W 094°54'0 0.0
2014-Nov-28 13:33N 29°22' W 094°54'0 0.0
2014-Nov-28 04:27N 29°22' W 094°54'0 0.0
2014-Nov-27 20:25N 29°22' W 094°54'5 0.2
2014-Nov-26 13:10N 29°25' W 094°49'3 5.7
2014-Nov-26 12:33N 29°28' W 094°51'5 5.4
2014-Nov-26 11:33N 29°33' W 094°54'5 5.3
2014-Nov-26 10:33N 29°37' W 094°57'5 5.1
2014-Nov-26 09:33N 29°42' W 094°60'4 2.9
2014-Nov-26 08:18N 29°44' W 095°03'0 0.0
2014-Nov-26 04:16N 29°44' W 095°03'0 0.0
2014-Nov-26 02:18N 29°44' W 095°03'0 0.0
2014-Nov-26 01:23N 29°44' W 095°03'0 0.0
2014-Nov-25 23:26N 29°44' W 095°03'0 0.0
2014-Nov-25 21:26N 29°44' W 095°03'0 0.0
2014-Nov-25 19:14N 29°44' W 095°03'0 0.0
2014-Nov-25 18:10N 29°44' W 095°03'0 0.0
2014-Nov-25 17:32N 29°44' W 095°03'0 0.0
2014-Nov-25 16:33N 29°44' W 095°03'0 0.0
2014-Nov-25 15:33N 29°44' W 095°03'0 0.0
2014-Nov-25 14:16N 29°44' W 095°03'0 0.0
2014-Nov-25 13:26N 29°44' W 095°03'0 0.0
2014-Nov-24 23:22N 29°44' W 095°03'3 3.1
2014-Nov-24 22:30N 29°46' W 095°05'0 0.0
2014-Nov-24 21:09N 29°46' W 095°05'0 0.0
2014-Nov-24 20:33N 29°46' W 095°05'0 0.0
2014-Nov-24 19:24N 29°46' W 095°05'0 0.0
2014-Nov-24 18:17N 29°46' W 095°05'0 0.0
2014-Nov-24 12:25N 29°46' W 095°05'0 0.0
2014-Nov-24 03:27N 29°46' W 095°05'0 0.0
2014-Nov-23 23:27N 29°46' W 095°05'0 0.0
2014-Nov-23 22:33N 29°46' W 095°05'0 0.0
2014-Nov-23 21:31N 29°46' W 095°05'0 0.0
2014-Nov-23 20:33N 29°46' W 095°05'0 0.0
2014-Nov-23 19:32N 29°46' W 095°05'0 0.0
2014-Nov-23 18:32N 29°46' W 095°05'0 0.0
2014-Nov-23 17:33N 29°46' W 095°05'0 0.0
2014-Nov-23 16:32N 29°46' W 095°05'0 0.0
2014-Nov-23 15:33N 29°46' W 095°05'0 0.0
2014-Nov-23 14:20N 29°46' W 095°05'0 0.0
2014-Nov-23 13:19N 29°46' W 095°05'0 0.0
2014-Nov-22 23:14N 29°46' W 095°05'0 0.0
2014-Nov-22 22:32N 29°46' W 095°05'0 0.0
2014-Nov-22 21:33N 29°46' W 095°05'0 0.0
2014-Nov-22 20:33N 29°46' W 095°05'0 0.0
2014-Nov-22 17:08N 29°46' W 095°05'0 0.0
2014-Nov-22 15:33N 29°46' W 095°05'0 0.0
2014-Nov-22 14:28N 29°46' W 095°05'0 0.0
2014-Nov-21 22:33N 29°46' W 095°05'0 0.0
2014-Nov-20 17:13N 29°46' W 095°05'0 0.0
2014-Nov-20 13:23N 29°46' W 095°05'0 0.0
2014-Nov-19 22:22N 29°46' W 095°05'0 0.0
2014-Nov-19 19:33N 29°46' W 095°05'0 0.0
2014-Nov-19 15:13N 29°46' W 095°05'0 0.0
2014-Nov-19 14:33N 29°46' W 095°05'0 0.0
2014-Nov-19 13:33N 29°46' W 095°05'0 0.0
2014-Nov-19 08:28N 29°46' W 095°05'3 3.3
2014-Nov-19 07:33N 29°44' W 095°03'4 3.6
2014-Nov-19 06:33N 29°42' W 094°59'4 4.2
2014-Nov-19 05:33N 29°38' W 094°58'5 4.5
2014-Nov-19 04:33N 29°34' W 094°55'  
Track history (hours):
 
Tides and Currents Weather Stations Pressure Air Temp Water Temp Dewpoint Dewpoint Depression Visibility Wind Speed Wind Dir Waves Ship Positions

Martin Challenger

Owner: MARTIN OPERATING PARTNERSHIP LP, VIDOR, TX. More information available from US FCC via Universal Licensing System and Coast Guard Vessel Documentation Center.

Last reported at 2014-Nov-28 15:27 UTC. Time now 2014-Nov-28 15:54 UTC.
Position N 29°22' W 094°54'.

Length 20 m; draft 2.9 m.

MMSI: 366874920.

Date/timePositionNaut miles runAvg speedWind from/ knotsBaromVisibWave heightAir tempDewpointWater temp
2014-Nov-28 15:27N 29°22' W 094°54'0 0.0
2014-Nov-28 14:27N 29°22' W 094°54'0 0.0
2014-Nov-28 13:33N 29°22' W 094°54'0 0.0
2014-Nov-28 04:27N 29°22' W 094°54'0 0.0
2014-Nov-27 20:25N 29°22' W 094°54'5 0.2
2014-Nov-26 13:10N 29°25' W 094°49'3 5.7
2014-Nov-26 12:33N 29°28' W 094°51'5 5.4
2014-Nov-26 11:33N 29°33' W 094°54'5 5.3
2014-Nov-26 10:33N 29°37' W 094°57'5 5.1
2014-Nov-26 09:33N 29°42' W 094°60'4 2.9
2014-Nov-26 08:18N 29°44' W 095°03'0 0.0
2014-Nov-26 04:16N 29°44' W 095°03'0 0.0
2014-Nov-26 02:18N 29°44' W 095°03'0 0.0
2014-Nov-26 01:23N 29°44' W 095°03'0 0.0
2014-Nov-25 23:26N 29°44' W 095°03'0 0.0
2014-Nov-25 21:26N 29°44' W 095°03'0 0.0
2014-Nov-25 19:14N 29°44' W 095°03'0 0.0
2014-Nov-25 18:10N 29°44' W 095°03'0 0.0
2014-Nov-25 17:32N 29°44' W 095°03'0 0.0
2014-Nov-25 16:33N 29°44' W 095°03'0 0.0
2014-Nov-25 15:33N 29°44' W 095°03'0 0.0
2014-Nov-25 14:16N 29°44' W 095°03'0 0.0
2014-Nov-25 13:26N 29°44' W 095°03'0 0.0
2014-Nov-24 23:22N 29°44' W 095°03'3 3.1
2014-Nov-24 22:30N 29°46' W 095°05'0 0.0
2014-Nov-24 21:09N 29°46' W 095°05'0 0.0
2014-Nov-24 20:33N 29°46' W 095°05'0 0.0
2014-Nov-24 19:24N 29°46' W 095°05'0 0.0
2014-Nov-24 18:17N 29°46' W 095°05'0 0.0
2014-Nov-24 12:25N 29°46' W 095°05'0 0.0
2014-Nov-24 03:27N 29°46' W 095°05'0 0.0
2014-Nov-23 23:27N 29°46' W 095°05'0 0.0
2014-Nov-23 22:33N 29°46' W 095°05'0 0.0
2014-Nov-23 21:31N 29°46' W 095°05'0 0.0
2014-Nov-23 20:33N 29°46' W 095°05'0 0.0
2014-Nov-23 19:32N 29°46' W 095°05'0 0.0
2014-Nov-23 18:32N 29°46' W 095°05'0 0.0
2014-Nov-23 17:33N 29°46' W 095°05'0 0.0
2014-Nov-23 16:32N 29°46' W 095°05'0 0.0
2014-Nov-23 15:33N 29°46' W 095°05'0 0.0
2014-Nov-23 14:20N 29°46' W 095°05'0 0.0
2014-Nov-23 13:19N 29°46' W 095°05'0 0.0
2014-Nov-22 23:14N 29°46' W 095°05'0 0.0
2014-Nov-22 22:32N 29°46' W 095°05'0 0.0
2014-Nov-22 21:33N 29°46' W 095°05'0 0.0
2014-Nov-22 20:33N 29°46' W 095°05'0 0.0
2014-Nov-22 17:08N 29°46' W 095°05'0 0.0
2014-Nov-22 15:33N 29°46' W 095°05'0 0.0
2014-Nov-22 14:28N 29°46' W 095°05'0 0.0
2014-Nov-21 22:33N 29°46' W 095°05'0 0.0
2014-Nov-20 17:13N 29°46' W 095°05'0 0.0
2014-Nov-20 13:23N 29°46' W 095°05'0 0.0
2014-Nov-19 22:22N 29°46' W 095°05'0 0.0
2014-Nov-19 19:33N 29°46' W 095°05'0 0.0
2014-Nov-19 15:13N 29°46' W 095°05'0 0.0
2014-Nov-19 14:33N 29°46' W 095°05'0 0.0
2014-Nov-19 13:33N 29°46' W 095°05'0 0.0
2014-Nov-19 08:28N 29°46' W 095°05'3 3.3
2014-Nov-19 07:33N 29°44' W 095°03'4 3.6
2014-Nov-19 06:33N 29°42' W 094°59'4 4.2
2014-Nov-19 05:33N 29°38' W 094°58'5 4.5
2014-Nov-19 04:33N 29°34' W 094°55'  

Dump ship's entire track history